PWSweather.com
Personal Weather Stations
Station Observations

YeovilGB

Lat: 50.949, Lon: -2.627

Elevation: 70

Station Type: Vantage Pro

http://www.yeovil-weather.me.uk/

High Low Average
Temperature 54.1°F12.3°C 44.2°F6.8°C 48.9°F9.4°C
Dew Point 53.0°F11.7°C 41.7°F5.4°C 47.0°F8.3°C
Winds 23.0 mph 37.0 kmh Calm Calm 9.0 mph SSW14.5 kmh SSW
Wind Gusts 41.4 mph66.6 kmh -- 16.0 mph25.7 kmh
Humidity 96% 89% 93%
Pressure 29.92 in1013.2 mb 29.63 in1003.4 mb -
Precipitation 0.42 in10.7 mm - -
Hour Temp Dew Point Humidity Winds Wind Gusts Pressure Precip Precip Rate Daily Precip Total
12:00 AM 51.8°F11.0°C 49.8°F9.9°C 93% 11.5 mph SSW18.5 kmh SSW 16.1 mph25.9 kmh 29.92 in1013.2 mb - 0.00 in0.0 mm 0.00 in0.0 mm
12:10 AM 51.9°F11.1°C 49.9°F9.9°C 93% 9.2 mph SSW14.8 kmh SSW 12.7 mph20.4 kmh 29.92 in1013.2 mb - 0.00 in0.0 mm 0.00 in0.0 mm
12:20 AM 52.0°F11.1°C 50.0°F10.0°C 93% 9.2 mph SSW14.8 kmh SSW 19.6 mph31.5 kmh 29.91 in1012.9 mb - 0.00 in0.0 mm 0.00 in0.0 mm
12:30 AM 52.0°F11.1°C 50.0°F10.0°C 93% 12.7 mph S20.4 kmh S 25.3 mph40.7 kmh 29.91 in1012.9 mb - 0.00 in0.0 mm 0.00 in0.0 mm
12:40 AM 52.0°F11.1°C 50.0°F10.0°C 93% 10.4 mph S16.7 kmh S 19.6 mph31.5 kmh 29.90 in1012.5 mb - 0.00 in0.0 mm 0.00 in0.0 mm
12:50 AM 51.9°F11.1°C 49.9°F9.9°C 93% 12.7 mph SSW20.4 kmh SSW 15.0 mph24.1 kmh 29.89 in1012.2 mb - 0.00 in0.0 mm 0.00 in0.0 mm
01:00 AM 52.0°F11.1°C 49.8°F9.9°C 92% 10.4 mph SSW16.7 kmh SSW 19.6 mph31.5 kmh 29.89 in1012.2 mb - 0.00 in0.0 mm 0.00 in0.0 mm
01:10 AM 52.3°F11.3°C 50.0°F10.0°C 92% 13.8 mph SSW22.2 kmh SSW 19.6 mph31.5 kmh 29.88 in1011.9 mb - 0.00 in0.0 mm 0.00 in0.0 mm
01:20 AM 52.4°F11.3°C 50.1°F10.1°C 92% 12.7 mph SSW20.4 kmh SSW 21.9 mph35.2 kmh 29.87 in1011.5 mb - 0.00 in0.0 mm 0.00 in0.0 mm
01:30 AM 52.5°F11.4°C 50.2°F10.1°C 92% 11.5 mph S18.5 kmh S 19.6 mph31.5 kmh 29.86 in1011.2 mb - 0.00 in0.0 mm 0.00 in0.0 mm
01:40 AM 52.5°F11.4°C 50.5°F10.3°C 93% 13.8 mph S22.2 kmh S 21.9 mph35.2 kmh 29.86 in1011.2 mb - 0.00 in0.0 mm 0.00 in0.0 mm
01:50 AM 52.6°F11.4°C 50.6°F10.3°C 93% 13.8 mph S22.2 kmh S 21.9 mph35.2 kmh 29.85 in1010.8 mb - 0.00 in0.0 mm 0.00 in0.0 mm
02:00 AM 52.6°F11.4°C 50.9°F10.5°C 94% 12.7 mph SSW20.4 kmh SSW 23.0 mph37.0 kmh 29.85 in1010.8 mb - 0.00 in0.0 mm 0.00 in0.0 mm
02:10 AM 52.5°F11.4°C 50.9°F10.5°C 94% 12.7 mph SSW20.4 kmh SSW 21.9 mph35.2 kmh 29.85 in1010.8 mb - 0.00 in0.0 mm 0.00 in0.0 mm
02:20 AM 52.5°F11.4°C 51.1°F10.6°C 95% 10.4 mph S16.7 kmh S 19.6 mph31.5 kmh 29.85 in1010.8 mb - 0.00 in0.0 mm 0.00 in0.0 mm
02:30 AM 52.5°F11.4°C 51.1°F10.6°C 95% 13.8 mph S22.2 kmh S 26.5 mph42.6 kmh 29.84 in1010.5 mb - 0.00 in0.0 mm 0.00 in0.0 mm
02:40 AM 52.7°F11.5°C 51.3°F10.7°C 95% 13.8 mph SSW22.2 kmh SSW 18.4 mph29.6 kmh 29.82 in1009.8 mb - 0.00 in0.0 mm 0.00 in0.0 mm
02:50 AM 52.7°F11.5°C 51.3°F10.7°C 95% 11.5 mph SSW18.5 kmh SSW 21.9 mph35.2 kmh 29.82 in1009.8 mb - 0.00 in0.0 mm 0.00 in0.0 mm
03:00 AM 52.6°F11.4°C 51.3°F10.7°C 95% 15.0 mph S24.1 kmh S 26.5 mph42.6 kmh 29.82 in1009.8 mb - 0.00 in0.0 mm 0.00 in0.0 mm
03:10 AM 52.7°F11.5°C 51.3°F10.7°C 95% 13.8 mph SSW22.2 kmh SSW 23.0 mph37.0 kmh 29.81 in1009.5 mb - 0.00 in0.0 mm 0.00 in0.0 mm
03:20 AM 52.7°F11.5°C 51.3°F10.7°C 95% 8.1 mph SSW13.0 kmh SSW 9.2 mph14.8 kmh 29.80 in1009.1 mb - 0.00 in0.0 mm 0.00 in0.0 mm
03:30 AM 52.8°F11.6°C 51.7°F10.9°C 96% 15.0 mph S24.1 kmh S 26.5 mph42.6 kmh 29.80 in1009.1 mb - 0.01 in0.3 mm 0.01 in0.3 mm
03:40 AM 52.8°F11.6°C 51.7°F10.9°C 96% 11.5 mph S18.5 kmh S 25.3 mph40.7 kmh 29.79 in1008.8 mb - 0.00 in0.0 mm 0.01 in0.3 mm
03:50 AM 52.9°F11.6°C 51.8°F11.0°C 96% 13.8 mph SSW22.2 kmh SSW 25.3 mph40.7 kmh 29.79 in1008.8 mb - 0.01 in0.3 mm 0.02 in0.5 mm
04:00 AM 53.1°F11.7°C 52.0°F11.1°C 96% 13.8 mph SSW22.2 kmh SSW 26.5 mph42.6 kmh 29.79 in1008.8 mb - 0.00 in0.0 mm 0.02 in0.5 mm
04:10 AM 53.2°F11.8°C 52.1°F11.2°C 96% 15.0 mph S24.1 kmh S 19.6 mph31.5 kmh 29.78 in1008.5 mb - 0.00 in0.0 mm 0.02 in0.5 mm
04:20 AM 53.3°F11.8°C 52.2°F11.2°C 96% 10.4 mph S16.7 kmh S 13.8 mph22.2 kmh 29.77 in1008.1 mb - 0.00 in0.0 mm 0.02 in0.5 mm
04:30 AM 53.3°F11.8°C 52.2°F11.2°C 96% 17.3 mph S27.8 kmh S 32.2 mph51.8 kmh 29.77 in1008.1 mb - 0.00 in0.0 mm 0.02 in0.5 mm
04:40 AM 53.4°F11.9°C 52.3°F11.3°C 96% 13.8 mph SSW22.2 kmh SSW 26.5 mph42.6 kmh 29.77 in1008.1 mb - 0.01 in0.3 mm 0.02 in0.5 mm
04:50 AM 53.5°F11.9°C 52.4°F11.3°C 96% 15.0 mph SSW24.1 kmh SSW 31.1 mph50.1 kmh 29.76 in1007.8 mb - 0.00 in0.0 mm 0.02 in0.5 mm
05:00 AM 53.5°F11.9°C 52.3°F11.3°C 96% 10.4 mph S16.7 kmh S 24.2 mph38.9 kmh 29.74 in1007.1 mb - 0.00 in0.0 mm 0.02 in0.5 mm
05:10 AM 53.5°F11.9°C 52.4°F11.3°C 96% 12.7 mph S20.4 kmh S 21.9 mph35.2 kmh 29.73 in1006.8 mb - 0.00 in0.0 mm 0.02 in0.5 mm
05:20 AM 53.6°F12.0°C 52.5°F11.4°C 96% 18.4 mph S29.6 kmh S 27.6 mph44.4 kmh 29.73 in1006.8 mb - 0.00 in0.0 mm 0.02 in0.5 mm
05:30 AM 53.7°F12.1°C 52.6°F11.4°C 96% 13.8 mph SSW22.2 kmh SSW 19.6 mph31.5 kmh 29.72 in1006.4 mb - 0.01 in0.3 mm 0.03 in0.8 mm
05:40 AM 53.7°F12.1°C 52.6°F11.4°C 96% 15.0 mph SSW24.1 kmh SSW 31.1 mph50.1 kmh 29.72 in1006.4 mb - 0.00 in0.0 mm 0.03 in0.8 mm
05:50 AM 53.7°F12.1°C 52.6°F11.4°C 96% 15.0 mph S24.1 kmh S 25.3 mph40.7 kmh 29.71 in1006.1 mb - 0.00 in0.0 mm 0.03 in0.8 mm
06:00 AM 53.7°F12.1°C 52.6°F11.4°C 96% 18.4 mph SSW29.6 kmh SSW 35.7 mph57.5 kmh 29.71 in1006.1 mb - 0.00 in0.0 mm 0.03 in0.8 mm
06:10 AM 53.7°F12.1°C 52.6°F11.4°C 96% 23.0 mph SSW37.0 kmh SSW 41.4 mph66.6 kmh 29.70 in1005.8 mb - 0.00 in0.0 mm 0.03 in0.8 mm
06:20 AM 53.8°F12.1°C 52.7°F11.5°C 96% 23.0 mph SSW37.0 kmh SSW 32.2 mph51.8 kmh 29.69 in1005.4 mb - 0.01 in0.3 mm 0.04 in1.0 mm
06:30 AM 53.7°F12.1°C 52.6°F11.4°C 96% 21.9 mph S35.2 kmh S 34.5 mph55.5 kmh 29.69 in1005.4 mb - 0.00 in0.0 mm 0.04 in1.0 mm
06:40 AM 53.7°F12.1°C 52.6°F11.4°C 96% 21.9 mph SSW35.2 kmh SSW 39.1 mph62.9 kmh 29.68 in1005.1 mb - 0.00 in0.0 mm 0.04 in1.0 mm
06:50 AM 53.7°F12.1°C 52.6°F11.4°C 96% 20.7 mph S33.3 kmh S 29.9 mph48.1 kmh 29.68 in1005.1 mb - 0.01 in0.3 mm 0.05 in1.3 mm
07:00 AM 53.7°F12.1°C 52.6°F11.4°C 96% 17.3 mph S27.8 kmh S 26.5 mph42.6 kmh 29.68 in1005.1 mb - 0.00 in0.0 mm 0.05 in1.3 mm
07:10 AM 53.7°F12.1°C 52.6°F11.4°C 96% 16.1 mph SSW25.9 kmh SSW 20.7 mph33.3 kmh 29.67 in1004.7 mb - 0.01 in0.3 mm 0.06 in1.5 mm
07:20 AM 53.7°F12.1°C 52.6°F11.4°C 96% 19.6 mph SSW31.5 kmh SSW 31.1 mph50.1 kmh 29.67 in1004.7 mb - 0.00 in0.0 mm 0.06 in1.5 mm
07:30 AM 53.7°F12.1°C 52.6°F11.4°C 96% 21.9 mph S35.2 kmh S 38.0 mph61.2 kmh 29.67 in1004.7 mb - 0.01 in0.3 mm 0.06 in1.5 mm
07:40 AM 53.6°F12.0°C 52.5°F11.4°C 96% 17.3 mph SSW27.8 kmh SSW 29.9 mph48.1 kmh 29.66 in1004.4 mb - 0.00 in0.0 mm 0.06 in1.5 mm
07:50 AM 53.6°F12.0°C 52.2°F11.2°C 95% 21.9 mph S35.2 kmh S 38.0 mph61.2 kmh 29.66 in1004.4 mb - 0.00 in0.0 mm 0.06 in1.5 mm
08:00 AM 53.7°F12.1°C 52.3°F11.3°C 95% 17.3 mph S27.8 kmh S 33.4 mph53.8 kmh 29.66 in1004.4 mb - 0.00 in0.0 mm 0.06 in1.5 mm
08:10 AM 53.8°F12.1°C 52.4°F11.3°C 95% 16.1 mph S25.9 kmh S 24.2 mph38.9 kmh 29.65 in1004.1 mb - 0.00 in0.0 mm 0.06 in1.5 mm
08:20 AM 53.9°F12.2°C 52.5°F11.4°C 95% 19.6 mph SSW31.5 kmh SSW 26.5 mph42.6 kmh 29.65 in1004.1 mb - 0.00 in0.0 mm 0.06 in1.5 mm
08:30 AM 53.9°F12.2°C 52.5°F11.4°C 95% 18.4 mph S29.6 kmh S 28.8 mph46.3 kmh 29.65 in1004.1 mb - 0.01 in0.3 mm 0.07 in1.8 mm
08:40 AM 53.9°F12.2°C 52.5°F11.4°C 95% 19.6 mph S31.5 kmh S 32.2 mph51.8 kmh 29.65 in1004.1 mb - 0.00 in0.0 mm 0.07 in1.8 mm
08:50 AM 54.0°F12.2°C 52.6°F11.4°C 95% 17.3 mph SW27.8 kmh SW 23.0 mph37.0 kmh 29.64 in1003.7 mb - 0.01 in0.3 mm 0.08 in2.0 mm
09:00 AM 54.1°F12.3°C 52.7°F11.5°C 95% 17.3 mph SSW27.8 kmh SSW 26.5 mph42.6 kmh 29.64 in1003.7 mb - 0.00 in0.0 mm 0.08 in2.0 mm
09:10 AM 54.1°F12.3°C 53.0°F11.7°C 96% 18.4 mph S29.6 kmh S 29.9 mph48.1 kmh 29.64 in1003.7 mb - 0.01 in0.3 mm 0.09 in2.3 mm
09:20 AM 54.0°F12.2°C 52.9°F11.6°C 96% 20.7 mph SW33.3 kmh SW 32.2 mph51.8 kmh 29.63 in1003.4 mb - 0.00 in0.0 mm 0.09 in2.3 mm
09:30 AM 54.0°F12.2°C 52.6°F11.4°C 95% 17.3 mph SSW27.8 kmh SSW 20.7 mph33.3 kmh 29.64 in1003.7 mb - 0.01 in0.3 mm 0.09 in2.3 mm
09:40 AM 53.9°F12.2°C 52.8°F11.6°C 96% 20.7 mph SSW33.3 kmh SSW 29.9 mph48.1 kmh 29.63 in1003.4 mb - 0.00 in0.0 mm 0.09 in2.3 mm
09:50 AM 53.9°F12.2°C 52.5°F11.4°C 95% 17.3 mph SSW27.8 kmh SSW 24.2 mph38.9 kmh 29.65 in1004.1 mb - 0.00 in0.0 mm 0.09 in2.3 mm
10:00 AM 51.8°F11.0°C 49.5°F9.7°C 92% 6.9 mph SW11.1 kmh SW 11.5 mph18.5 kmh 29.68 in1005.1 mb - 0.05 in1.3 mm 0.14 in3.6 mm
10:10 AM 49.5°F9.7°C 47.5°F8.6°C 93% 3.5 mph SW5.6 kmh SW 8.1 mph13.0 kmh 29.68 in1005.1 mb - 0.16 in4.1 mm 0.28 in7.1 mm
10:20 AM 48.7°F9.3°C 47.1°F8.4°C 94% 3.5 mph W5.6 kmh W 4.6 mph7.4 kmh 29.68 in1005.1 mb - 0.07 in1.8 mm 0.34 in8.6 mm
10:30 AM 48.4°F9.1°C 47.0°F8.3°C 95% Calm Calm -- 29.68 in1005.1 mb - 0.02 in0.5 mm 0.35 in8.9 mm
10:40 AM 48.4°F9.1°C 47.0°F8.3°C 95% 2.3 mph SW3.7 kmh SW 6.9 mph11.1 kmh 29.69 in1005.4 mb - 0.01 in0.3 mm 0.36 in9.1 mm
10:50 AM 48.3°F9.1°C 46.9°F8.3°C 95% 4.6 mph SW7.4 kmh SW 6.9 mph11.1 kmh 29.69 in1005.4 mb - 0.00 in0.0 mm 0.36 in9.1 mm
11:00 AM 48.2°F9.0°C 46.8°F8.2°C 95% 6.9 mph SW11.1 kmh SW 9.2 mph14.8 kmh 29.69 in1005.4 mb - 0.01 in0.3 mm 0.37 in9.4 mm
11:10 AM 48.0°F8.9°C 46.6°F8.1°C 95% 3.5 mph SW5.6 kmh SW 10.4 mph16.7 kmh 29.69 in1005.4 mb - 0.01 in0.3 mm 0.38 in9.7 mm
11:20 AM 47.8°F8.8°C 46.7°F8.2°C 96% 1.2 mph SW1.9 kmh SW 11.5 mph18.5 kmh 29.69 in1005.4 mb - 0.00 in0.0 mm 0.38 in9.7 mm
11:30 AM 47.8°F8.8°C 46.7°F8.2°C 96% 2.3 mph SW3.7 kmh SW 8.1 mph13.0 kmh 29.69 in1005.4 mb - 0.00 in0.0 mm 0.38 in9.7 mm
11:40 AM 47.7°F8.7°C 46.6°F8.1°C 96% 2.3 mph SW3.7 kmh SW 8.1 mph13.0 kmh 29.68 in1005.1 mb - 0.00 in0.0 mm 0.38 in9.7 mm
11:50 AM 47.8°F8.8°C 46.7°F8.2°C 96% Calm Calm -- 29.69 in1005.4 mb - 0.00 in0.0 mm 0.38 in9.7 mm
12:00 PM 47.8°F8.8°C 46.7°F8.2°C 96% 2.3 mph SSW3.7 kmh SSW 8.1 mph13.0 kmh 29.69 in1005.4 mb - 0.01 in0.3 mm 0.39 in9.9 mm
12:10 PM 47.8°F8.8°C 46.7°F8.2°C 96% 6.9 mph WSW11.1 kmh WSW 10.4 mph16.7 kmh 29.70 in1005.8 mb - 0.00 in0.0 mm 0.39 in9.9 mm
12:20 PM 47.3°F8.5°C 45.9°F7.7°C 95% 4.6 mph SW7.4 kmh SW 8.1 mph13.0 kmh 29.70 in1005.8 mb - 0.01 in0.3 mm 0.39 in9.9 mm
12:30 PM 47.1°F8.4°C 45.7°F7.6°C 95% 10.4 mph SW16.7 kmh SW 11.5 mph18.5 kmh 29.70 in1005.8 mb - 0.00 in0.0 mm 0.39 in9.9 mm
12:40 PM 46.8°F8.2°C 45.2°F7.3°C 94% 6.9 mph SW11.1 kmh SW 12.7 mph20.4 kmh 29.70 in1005.8 mb - 0.00 in0.0 mm 0.39 in9.9 mm
12:50 PM 46.3°F7.9°C 44.1°F6.7°C 92% 4.6 mph SSW7.4 kmh SSW 11.5 mph18.5 kmh 29.70 in1005.8 mb - 0.00 in0.0 mm 0.39 in9.9 mm
01:00 PM 46.0°F7.8°C 43.5°F6.4°C 91% 10.4 mph SW16.7 kmh SW 12.7 mph20.4 kmh 29.70 in1005.8 mb - 0.00 in0.0 mm 0.39 in9.9 mm
01:10 PM 45.8°F7.7°C 43.3°F6.3°C 91% 8.1 mph SW13.0 kmh SW 12.7 mph20.4 kmh 29.69 in1005.4 mb - 0.01 in0.3 mm 0.40 in10.2 mm
01:20 PM 45.8°F7.7°C 43.3°F6.3°C 91% 2.3 mph SW3.7 kmh SW 9.2 mph14.8 kmh 29.69 in1005.4 mb - 0.00 in0.0 mm 0.40 in10.2 mm
01:30 PM 45.7°F7.6°C 43.2°F6.2°C 91% 3.5 mph SW5.6 kmh SW 11.5 mph18.5 kmh 29.69 in1005.4 mb - 0.00 in0.0 mm 0.40 in10.2 mm
01:40 PM 45.7°F7.6°C 43.2°F6.2°C 91% 9.2 mph SSW14.8 kmh SSW 11.5 mph18.5 kmh 29.69 in1005.4 mb - 0.00 in0.0 mm 0.40 in10.2 mm
01:50 PM 45.7°F7.6°C 43.5°F6.4°C 92% 6.9 mph SSW11.1 kmh SSW 11.5 mph18.5 kmh 29.69 in1005.4 mb - 0.01 in0.3 mm 0.41 in10.4 mm
02:00 PM 45.5°F7.5°C 43.1°F6.2°C 91% 6.9 mph SW11.1 kmh SW 11.5 mph18.5 kmh 29.68 in1005.1 mb - 0.00 in0.0 mm 0.41 in10.4 mm
02:10 PM 45.3°F7.4°C 43.1°F6.2°C 92% 8.1 mph SW13.0 kmh SW 11.5 mph18.5 kmh 29.68 in1005.1 mb - 0.00 in0.0 mm 0.41 in10.4 mm
02:20 PM 44.9°F7.2°C 42.8°F6.0°C 92% 6.9 mph SSW11.1 kmh SSW 10.4 mph16.7 kmh 29.68 in1005.1 mb - 0.01 in0.3 mm 0.42 in10.7 mm
02:30 PM 44.5°F6.9°C 42.0°F5.6°C 91% 5.8 mph SSW9.3 kmh SSW 8.1 mph13.0 kmh 29.66 in1004.4 mb - 0.00 in0.0 mm 0.42 in10.7 mm
02:40 PM 44.2°F6.8°C 41.8°F5.4°C 91% 6.9 mph SSW11.1 kmh SSW 11.5 mph18.5 kmh 29.67 in1004.7 mb - 0.00 in0.0 mm 0.42 in10.7 mm
02:50 PM 44.2°F6.8°C 41.7°F5.4°C 91% 6.9 mph SSW11.1 kmh SSW 10.4 mph16.7 kmh 29.67 in1004.7 mb - 0.00 in0.0 mm 0.42 in10.7 mm
03:00 PM 44.3°F6.8°C 42.1°F5.6°C 92% 3.5 mph SW5.6 kmh SW 13.8 mph22.2 kmh 29.67 in1004.7 mb - 0.00 in0.0 mm 0.42 in10.7 mm
03:10 PM 44.5°F6.9°C 42.3°F5.7°C 92% 5.8 mph SSW9.3 kmh SSW 11.5 mph18.5 kmh 29.68 in1005.1 mb - 0.00 in0.0 mm 0.42 in10.7 mm
03:20 PM 44.5°F6.9°C 42.0°F5.6°C 91% 5.8 mph SSW9.3 kmh SSW 10.4 mph16.7 kmh 29.68 in1005.1 mb - 0.00 in0.0 mm 0.42 in10.7 mm
03:30 PM 44.5°F6.9°C 42.1°F5.6°C 91% 6.9 mph S11.1 kmh S 10.4 mph16.7 kmh 29.68 in1005.1 mb - 0.00 in0.0 mm 0.42 in10.7 mm
03:40 PM 44.7°F7.1°C 42.2°F5.7°C 91% 6.9 mph S11.1 kmh S 11.5 mph18.5 kmh 29.69 in1005.4 mb - 0.00 in0.0 mm 0.42 in10.7 mm
03:50 PM 44.9°F7.2°C 42.4°F5.8°C 91% 8.1 mph SW13.0 kmh SW 11.5 mph18.5 kmh 29.68 in1005.1 mb - 0.00 in0.0 mm 0.42 in10.7 mm
04:00 PM 45.1°F7.3°C 42.9°F6.1°C 92% 4.6 mph S7.4 kmh S 9.2 mph14.8 kmh 29.69 in1005.4 mb - 0.00 in0.0 mm 0.42 in10.7 mm
04:10 PM 45.3°F7.4°C 43.1°F6.2°C 92% 9.2 mph SSW14.8 kmh SSW 11.5 mph18.5 kmh 29.68 in1005.1 mb - 0.00 in0.0 mm 0.42 in10.7 mm
04:20 PM 45.4°F7.4°C 43.2°F6.2°C 92% 6.9 mph S11.1 kmh S 11.5 mph18.5 kmh 29.69 in1005.4 mb - 0.00 in0.0 mm 0.42 in10.7 mm
04:30 PM 45.6°F7.6°C 43.4°F6.3°C 92% 6.9 mph S11.1 kmh S 12.7 mph20.4 kmh 29.69 in1005.4 mb - 0.00 in0.0 mm 0.42 in10.7 mm
04:40 PM 45.7°F7.6°C 43.5°F6.4°C 92% 4.6 mph S7.4 kmh S 11.5 mph18.5 kmh 29.68 in1005.1 mb - 0.00 in0.0 mm 0.42 in10.7 mm
04:50 PM 45.8°F7.7°C 43.6°F6.4°C 92% 6.9 mph SW11.1 kmh SW 10.4 mph16.7 kmh 29.69 in1005.4 mb - 0.00 in0.0 mm 0.42 in10.7 mm
05:00 PM 45.9°F7.7°C 44.0°F6.7°C 93% 3.5 mph S5.6 kmh S 11.5 mph18.5 kmh 29.69 in1005.4 mb - 0.00 in0.0 mm 0.42 in10.7 mm
05:10 PM 46.0°F7.8°C 44.1°F6.7°C 93% 6.9 mph SW11.1 kmh SW 11.5 mph18.5 kmh 29.69 in1005.4 mb - 0.00 in0.0 mm 0.42 in10.7 mm
05:20 PM 46.2°F7.9°C 44.3°F6.8°C 93% 4.6 mph SSW7.4 kmh SSW 10.4 mph16.7 kmh 29.70 in1005.8 mb - 0.00 in0.0 mm 0.42 in10.7 mm
05:30 PM 46.3°F7.9°C 44.4°F6.9°C 93% 4.6 mph S7.4 kmh S 11.5 mph18.5 kmh 29.70 in1005.8 mb - 0.00 in0.0 mm 0.42 in10.7 mm
05:40 PM 46.3°F7.9°C 44.4°F6.9°C 93% 8.1 mph S13.0 kmh S 11.5 mph18.5 kmh 29.70 in1005.8 mb - 0.00 in0.0 mm 0.42 in10.7 mm
05:50 PM 46.1°F7.8°C 44.2°F6.8°C 93% 2.3 mph SSW3.7 kmh SSW 11.5 mph18.5 kmh 29.70 in1005.8 mb - 0.00 in0.0 mm 0.42 in10.7 mm
06:00 PM 46.0°F7.8°C 43.8°F6.6°C 92% 8.1 mph S13.0 kmh S 11.5 mph18.5 kmh 29.70 in1005.8 mb - 0.00 in0.0 mm 0.42 in10.7 mm
06:10 PM 45.9°F7.7°C 43.7°F6.5°C 92% 6.9 mph SSW11.1 kmh SSW 11.5 mph18.5 kmh 29.71 in1006.1 mb - 0.00 in0.0 mm 0.42 in10.7 mm
06:20 PM 45.8°F7.7°C 43.6°F6.4°C 92% 4.6 mph SSW7.4 kmh SSW 8.1 mph13.0 kmh 29.71 in1006.1 mb - 0.00 in0.0 mm 0.42 in10.7 mm
06:30 PM 45.7°F7.6°C 43.8°F6.6°C 93% 4.6 mph SSW7.4 kmh SSW 10.4 mph16.7 kmh 29.71 in1006.1 mb - 0.00 in0.0 mm 0.42 in10.7 mm
06:40 PM 45.8°F7.7°C 43.9°F6.6°C 93% 2.3 mph SSW3.7 kmh SSW 5.8 mph9.3 kmh 29.71 in1006.1 mb - 0.00 in0.0 mm 0.42 in10.7 mm
06:50 PM 45.7°F7.6°C 43.8°F6.6°C 93% 3.5 mph SSW5.6 kmh SSW 9.2 mph14.8 kmh 29.71 in1006.1 mb - 0.00 in0.0 mm 0.42 in10.7 mm
07:00 PM 45.7°F7.6°C 43.8°F6.6°C 93% 1.2 mph SSW1.9 kmh SSW 4.6 mph7.4 kmh 29.72 in1006.4 mb - 0.00 in0.0 mm 0.42 in10.7 mm
07:10 PM 45.6°F7.6°C 43.7°F6.5°C 93% 2.3 mph SSW3.7 kmh SSW 8.1 mph13.0 kmh 29.72 in1006.4 mb - 0.00 in0.0 mm 0.42 in10.7 mm
07:20 PM 45.6°F7.6°C 43.7°F6.5°C 93% 2.3 mph SW3.7 kmh SW 5.8 mph9.3 kmh 29.72 in1006.4 mb - 0.00 in0.0 mm 0.42 in10.7 mm
07:30 PM 45.6°F7.6°C 43.7°F6.5°C 93% 1.2 mph SSW1.9 kmh SSW 10.4 mph16.7 kmh 29.72 in1006.4 mb - 0.00 in0.0 mm 0.42 in10.7 mm
07:40 PM 45.4°F7.4°C 43.5°F6.4°C 93% 2.3 mph SW3.7 kmh SW 9.2 mph14.8 kmh 29.73 in1006.8 mb - 0.00 in0.0 mm 0.42 in10.7 mm
07:50 PM 45.4°F7.4°C 43.5°F6.4°C 93% 4.6 mph SSW7.4 kmh SSW 9.2 mph14.8 kmh 29.73 in1006.8 mb - 0.00 in0.0 mm 0.42 in10.7 mm
08:00 PM 45.4°F7.4°C 43.2°F6.2°C 92% 4.6 mph SSW7.4 kmh SSW 6.9 mph11.1 kmh 29.73 in1006.8 mb - 0.00 in0.0 mm 0.42 in10.7 mm
08:10 PM 45.3°F7.4°C 43.1°F6.2°C 92% 5.8 mph SW9.3 kmh SW 11.5 mph18.5 kmh 29.73 in1006.8 mb - 0.00 in0.0 mm 0.42 in10.7 mm
08:20 PM 45.2°F7.3°C 42.7°F5.9°C 91% 3.5 mph SSW5.6 kmh SSW 10.4 mph16.7 kmh 29.73 in1006.8 mb - 0.00 in0.0 mm 0.42 in10.7 mm
08:30 PM 45.0°F7.2°C 42.5°F5.8°C 91% 4.6 mph SSW7.4 kmh SSW 9.2 mph14.8 kmh 29.73 in1006.8 mb - 0.00 in0.0 mm 0.42 in10.7 mm
08:40 PM 44.9°F7.2°C 42.1°F5.6°C 90% 2.3 mph SSW3.7 kmh SSW 6.9 mph11.1 kmh 29.73 in1006.8 mb - 0.00 in0.0 mm 0.42 in10.7 mm
08:50 PM 44.8°F7.1°C 42.0°F5.6°C 90% 5.8 mph SSW9.3 kmh SSW 10.4 mph16.7 kmh 29.74 in1007.1 mb - 0.00 in0.0 mm 0.42 in10.7 mm
09:00 PM 44.7°F7.1°C 41.9°F5.5°C 90% 2.3 mph SSW3.7 kmh SSW 1.2 mph1.9 kmh 29.74 in1007.1 mb - 0.00 in0.0 mm 0.42 in10.7 mm
09:10 PM 44.6°F7.0°C 41.8°F5.4°C 90% 4.6 mph SSW7.4 kmh SSW 10.4 mph16.7 kmh 29.75 in1007.5 mb - 0.00 in0.0 mm 0.42 in10.7 mm
09:20 PM 44.6°F7.0°C 41.8°F5.4°C 90% 1.2 mph SSW1.9 kmh SSW 6.9 mph11.1 kmh 29.75 in1007.5 mb - 0.00 in0.0 mm 0.42 in10.7 mm
09:30 PM 44.5°F6.9°C 41.7°F5.4°C 90% 4.6 mph S7.4 kmh S 11.5 mph18.5 kmh 29.75 in1007.5 mb - 0.00 in0.0 mm 0.42 in10.7 mm
09:40 PM 44.6°F7.0°C 41.8°F5.4°C 90% 4.6 mph SSW7.4 kmh SSW 11.5 mph18.5 kmh 29.75 in1007.5 mb - 0.00 in0.0 mm 0.42 in10.7 mm
09:50 PM 44.7°F7.1°C 41.9°F5.5°C 90% 1.2 mph SSW1.9 kmh SSW 6.9 mph11.1 kmh 29.75 in1007.5 mb - 0.00 in0.0 mm 0.42 in10.7 mm
10:00 PM 44.6°F7.0°C 41.8°F5.4°C 90% 2.3 mph S3.7 kmh S 10.4 mph16.7 kmh 29.76 in1007.8 mb - 0.00 in0.0 mm 0.42 in10.7 mm
10:10 PM 44.6°F7.0°C 41.8°F5.4°C 90% 8.1 mph SW13.0 kmh SW 12.7 mph20.4 kmh 29.76 in1007.8 mb - 0.00 in0.0 mm 0.42 in10.7 mm
10:20 PM 44.5°F6.9°C 41.8°F5.4°C 90% Calm Calm 1.2 mph1.9 kmh 29.76 in1007.8 mb - 0.00 in0.0 mm 0.42 in10.7 mm
10:30 PM 44.5°F6.9°C 41.7°F5.4°C 90% 4.6 mph SSW7.4 kmh SSW 10.4 mph16.7 kmh 29.75 in1007.5 mb - 0.00 in0.0 mm 0.42 in10.7 mm
10:40 PM 44.4°F6.9°C 41.7°F5.4°C 90% 2.3 mph SSW3.7 kmh SSW 3.5 mph5.6 kmh 29.76 in1007.8 mb - 0.00 in0.0 mm 0.42 in10.7 mm
10:50 PM 44.4°F6.9°C 41.7°F5.4°C 90% 5.8 mph SSW9.3 kmh SSW 9.2 mph14.8 kmh 29.76 in1007.8 mb - 0.00 in0.0 mm 0.42 in10.7 mm
11:00 PM 44.5°F6.9°C 41.8°F5.4°C 90% 4.6 mph SSW7.4 kmh SSW 8.1 mph13.0 kmh 29.76 in1007.8 mb - 0.00 in0.0 mm 0.42 in10.7 mm
11:10 PM 44.7°F7.1°C 42.0°F5.6°C 90% 5.8 mph SW9.3 kmh SW 9.2 mph14.8 kmh 29.76 in1007.8 mb - 0.00 in0.0 mm 0.42 in10.7 mm
11:20 PM 44.9°F7.2°C 42.1°F5.6°C 90% 4.6 mph S7.4 kmh S 9.2 mph14.8 kmh 29.76 in1007.8 mb - 0.00 in0.0 mm 0.42 in10.7 mm
11:30 PM 45.0°F7.2°C 42.0°F5.6°C 89% 5.8 mph S9.3 kmh S 11.5 mph18.5 kmh 29.76 in1007.8 mb - 0.00 in0.0 mm 0.42 in10.7 mm
11:40 PM 45.0°F7.2°C 41.9°F5.5°C 89% 1.2 mph SSW1.9 kmh SSW 8.1 mph13.0 kmh 29.77 in1008.1 mb - 0.00 in0.0 mm 0.42 in10.7 mm
11:50 PM 44.9°F7.2°C 41.9°F5.5°C 89% 6.9 mph SSW11.1 kmh SSW 10.4 mph16.7 kmh 29.77 in1008.1 mb - 0.00 in0.0 mm 0.42 in10.7 mm